createdAt,value
2022-12-11T12:26:36.972Z,75.62
2022-12-11T12:29:17.364Z,76.35
2022-12-11T12:33:33.294Z,61.68
2022-12-11T12:51:17.967Z,66.64
2022-12-11T12:53:51.242Z,75.47
2022-12-11T12:56:27.609Z,75.61
2022-12-11T12:58:56.486Z,76.41
2022-12-11T13:01:28.353Z,75.85
2022-12-11T13:03:58.024Z,75.19
2022-12-11T13:06:34.101Z,75.30
2022-12-11T13:09:16.545Z,76.55
2022-12-11T13:11:46.255Z,75.85
2022-12-11T13:14:30.393Z,75.80
2022-12-11T13:17:26.863Z,77.10
2022-12-11T13:20:19.651Z,77.41
2022-12-11T13:22:57.577Z,76.63
2022-12-11T13:25:28.831Z,76.98
2022-12-11T13:28:08.866Z,78.01
2022-12-11T13:30:37.097Z,76.86
2022-12-11T13:33:08.463Z,76.38
2022-12-11T13:35:37.324Z,76.53
2022-12-11T13:38:14.565Z,77.62
2022-12-11T13:40:45.326Z,76.93
2022-12-11T13:43:20.728Z,76.92
2022-12-11T13:45:51.630Z,77.00
2022-12-11T13:48:26.097Z,77.29
2022-12-11T13:50:55.950Z,77.54
2022-12-11T13:53:28.458Z,77.18
2022-12-11T13:55:59.404Z,76.52
2022-12-11T13:58:28.438Z,77.19
2022-12-11T14:01:07.660Z,77.33
2022-12-11T14:03:37.315Z,77.99
2022-12-11T14:06:18.206Z,78.09
2022-12-11T14:08:53.068Z,79.14
2022-12-11T14:11:33.535Z,78.82
2022-12-11T14:14:04.579Z,77.97
2022-12-11T14:16:33.859Z,78.92
2022-12-11T14:19:08.387Z,80.50
2022-12-11T14:21:37.496Z,80.56
2022-12-11T14:24:08.803Z,79.89
2022-12-11T14:26:38.958Z,80.91
2022-12-11T14:29:07.848Z,80.65
2022-12-11T14:31:39.078Z,80.21
2022-12-11T14:34:13.045Z,80.55
2022-12-11T14:36:43.378Z,80.52
2022-12-11T14:39:18.169Z,79.73
2022-12-11T14:41:51.006Z,80.24
2022-12-11T14:44:22.497Z,80.48
2022-12-11T14:46:54.513Z,80.28
2022-12-11T14:49:25.997Z,90.18
